sensor_id;sensor_type;location;lat;lon;timestamp;pressure;altitude;pressure_sealevel;temperature
61595;BMP280;47397;48.194;11.632;2024-02-23T00:00:32;94041.22;;;8.09
61595;BMP280;47397;48.194;11.632;2024-02-23T00:01:33;94035.59;;;8.02
61595;BMP280;47397;48.194;11.632;2024-02-23T00:02:34;94038.00;;;8.05
61595;BMP280;47397;48.194;11.632;2024-02-23T00:03:34;94038.47;;;8.13
61595;BMP280;47397;48.194;11.632;2024-02-23T00:04:34;94036.09;;;8.10
61595;BMP280;47397;48.194;11.632;2024-02-23T00:05:34;94040.47;;;8.07
61595;BMP280;47397;48.194;11.632;2024-02-23T00:06:35;94041.69;;;7.98
61595;BMP280;47397;48.194;11.632;2024-02-23T00:07:35;94041.63;;;8.00
61595;BMP280;47397;48.194;11.632;2024-02-23T00:08:36;94034.78;;;8.02
61595;BMP280;47397;48.194;11.632;2024-02-23T00:09:36;94041.41;;;8.04
61595;BMP280;47397;48.194;11.632;2024-02-23T00:10:36;94041.69;;;7.98
61595;BMP280;47397;48.194;11.632;2024-02-23T00:11:39;94051.88;;;7.97
61595;BMP280;47397;48.194;11.632;2024-02-23T00:12:39;94047.03;;;7.92
61595;BMP280;47397;48.194;11.632;2024-02-23T00:13:39;94037.72;;;7.93
61595;BMP280;47397;48.194;11.632;2024-02-23T00:14:40;94051.06;;;7.96
61595;BMP280;47397;48.194;11.632;2024-02-23T00:15:40;94043.47;;;7.96
61595;BMP280;47397;48.194;11.632;2024-02-23T00:16:42;94042.66;;;7.96
61595;BMP280;47397;48.194;11.632;2024-02-23T00:17:42;94044.41;;;7.94
61595;BMP280;47397;48.194;11.632;2024-02-23T00:18:42;94041.63;;;7.79
61595;BMP280;47397;48.194;11.632;2024-02-23T00:19:45;94039.13;;;7.79
61595;BMP280;47397;48.194;11.632;2024-02-23T00:20:46;94042.47;;;7.80
61595;BMP280;47397;48.194;11.632;2024-02-23T00:21:46;94053.16;;;7.87
61595;BMP280;47397;48.194;11.632;2024-02-23T00:22:46;94061.84;;;7.81
61595;BMP280;47397;48.194;11.632;2024-02-23T00:23:47;94050.91;;;7.80
61595;BMP280;47397;48.194;11.632;2024-02-23T00:24:47;94047.16;;;7.89
61595;BMP280;47397;48.194;11.632;2024-02-23T00:25:47;94057.47;;;7.84
61595;BMP280;47397;48.194;11.632;2024-02-23T00:26:48;94066.81;;;7.82
61595;BMP280;47397;48.194;11.632;2024-02-23T00:27:48;94050.94;;;7.79
61595;BMP280;47397;48.194;11.632;2024-02-23T00:28:49;94055.06;;;7.81
61595;BMP280;47397;48.194;11.632;2024-02-23T00:29:49;94057.41;;;7.86
61595;BMP280;47397;48.194;11.632;2024-02-23T00:30:49;94050.91;;;7.80
61595;BMP280;47397;48.194;11.632;2024-02-23T00:31:51;94045.47;;;7.69
61595;BMP280;47397;48.194;11.632;2024-02-23T00:32:51;94044.38;;;7.75
61595;BMP280;47397;48.194;11.632;2024-02-23T00:33:51;94045.88;;;7.79
61595;BMP280;47397;48.194;11.632;2024-02-23T00:34:52;94043.19;;;7.63
61595;BMP280;47397;48.194;11.632;2024-02-23T00:35:52;94051.34;;;7.70
61595;BMP280;47397;48.194;11.632;2024-02-23T00:36:52;94045.13;;;7.77
61595;BMP280;47397;48.194;11.632;2024-02-23T00:37:53;94047.09;;;7.70
61595;BMP280;47397;48.194;11.632;2024-02-23T00:38:53;94049.06;;;7.64
61595;BMP280;47397;48.194;11.632;2024-02-23T00:39:53;94049.00;;;7.65
61595;BMP280;47397;48.194;11.632;2024-02-23T00:40:54;94052.97;;;7.71
61595;BMP280;47397;48.194;11.632;2024-02-23T00:41:54;94042.19;;;7.67
61595;BMP280;47397;48.194;11.632;2024-02-23T00:42:54;94050.38;;;7.72
61595;BMP280;47397;48.194;11.632;2024-02-23T00:43:55;94047.72;;;7.75
61595;BMP280;47397;48.194;11.632;2024-02-23T00:44:55;94059.81;;;7.69
61595;BMP280;47397;48.194;11.632;2024-02-23T00:45:56;94052.84;;;7.74
61595;BMP280;47397;48.194;11.632;2024-02-23T00:46:57;94062.00;;;7.76
61595;BMP280;47397;48.194;11.632;2024-02-23T00:47:57;94057.06;;;7.73
61595;BMP280;47397;48.194;11.632;2024-02-23T00:48:58;94059.13;;;7.65
61595;BMP280;47397;48.194;11.632;2024-02-23T00:49:58;94057.53;;;7.63
61595;BMP280;47397;48.194;11.632;2024-02-23T00:50:59;94064.78;;;7.70
61595;BMP280;47397;48.194;11.632;2024-02-23T00:51:59;94076.53;;;7.71
61595;BMP280;47397;48.194;11.632;2024-02-23T00:52:59;94068.97;;;7.71
61595;BMP280;47397;48.194;11.632;2024-02-23T00:54:00;94075.59;;;7.74
61595;BMP280;47397;48.194;11.632;2024-02-23T00:55:00;94071.56;;;7.70
61595;BMP280;47397;48.194;11.632;2024-02-23T00:56:00;94091.16;;;7.65
61595;BMP280;47397;48.194;11.632;2024-02-23T00:57:01;94077.63;;;7.66
61595;BMP280;47397;48.194;11.632;2024-02-23T00:58:01;94075.72;;;7.71
61595;BMP280;47397;48.194;11.632;2024-02-23T00:59:02;94087.59;;;7.69
61595;BMP280;47397;48.194;11.632;2024-02-23T01:00:03;94094.44;;;7.67
61595;BMP280;47397;48.194;11.632;2024-02-23T01:01:03;94075.16;;;7.64
61595;BMP280;47397;48.194;11.632;2024-02-23T01:02:05;94088.63;;;7.65
61595;BMP280;47397;48.194;11.632;2024-02-23T01:03:05;94090.97;;;7.69
61595;BMP280;47397;48.194;11.632;2024-02-23T01:04:06;94085.16;;;7.67
61595;BMP280;47397;48.194;11.632;2024-02-23T01:05:07;94090.53;;;7.60
61595;BMP280;47397;48.194;11.632;2024-02-23T01:06:07;94098.94;;;7.60
61595;BMP280;47397;48.194;11.632;2024-02-23T01:07:08;94089.50;;;7.64
61595;BMP280;47397;48.194;11.632;2024-02-23T01:08:08;94096.41;;;7.60
61595;BMP280;47397;48.194;11.632;2024-02-23T01:09:08;94099.88;;;7.58
61595;BMP280;47397;48.194;11.632;2024-02-23T01:10:09;94086.16;;;7.63
61595;BMP280;47397;48.194;11.632;2024-02-23T01:11:09;94087.94;;;7.61
61595;BMP280;47397;48.194;11.632;2024-02-23T01:12:09;94096.41;;;7.60
61595;BMP280;47397;48.194;11.632;2024-02-23T01:13:10;94084.72;;;7.58
61595;BMP280;47397;48.194;11.632;2024-02-23T01:14:10;94090.41;;;7.63
61595;BMP280;47397;48.194;11.632;2024-02-23T01:15:10;94091.28;;;7.62
61595;BMP280;47397;48.194;11.632;2024-02-23T01:16:11;94094.75;;;7.59
61595;BMP280;47397;48.194;11.632;2024-02-23T01:17:13;94101.66;;;7.56
61595;BMP280;47397;48.194;11.632;2024-02-23T01:18:13;94100.75;;;7.57
61595;BMP280;47397;48.194;11.632;2024-02-23T01:19:13;94104.94;;;7.58
61595;BMP280;47397;48.194;11.632;2024-02-23T01:20:14;94083.81;;;7.59
61595;BMP280;47397;48.194;11.632;2024-02-23T01:21:14;94099.25;;;7.52
61595;BMP280;47397;48.194;11.632;2024-02-23T01:22:15;94104.94;;;7.58
61595;BMP280;47397;48.194;11.632;2024-02-23T01:23:15;94100.63;;;7.60
61595;BMP280;47397;48.194;11.632;2024-02-23T01:24:15;94108.97;;;7.62
61595;BMP280;47397;48.194;11.632;2024-02-23T01:25:16;94099.63;;;7.64
61595;BMP280;47397;48.194;11.632;2024-02-23T01:26:16;94120.72;;;7.63
61595;BMP280;47397;48.194;11.632;2024-02-23T01:27:17;94119.09;;;7.62
61595;BMP280;47397;48.194;11.632;2024-02-23T01:28:17;94126.88;;;7.57
61595;BMP280;47397;48.194;11.632;2024-02-23T01:29:17;94125.91;;;7.60
61595;BMP280;47397;48.194;11.632;2024-02-23T01:30:18;94130.03;;;7.62
61595;BMP280;47397;48.194;11.632;2024-02-23T01:31:18;94111.63;;;7.59
61595;BMP280;47397;48.194;11.632;2024-02-23T01:32:20;94128.63;;;7.55
61595;BMP280;47397;48.194;11.632;2024-02-23T01:33:20;94122.88;;;7.51
61595;BMP280;47397;48.194;11.632;2024-02-23T01:34:21;94125.53;;;7.48
61595;BMP280;47397;48.194;11.632;2024-02-23T01:35:21;94122.75;;;7.55
61595;BMP280;47397;48.194;11.632;2024-02-23T01:36:21;94116.88;;;7.54
61595;BMP280;47397;48.194;11.632;2024-02-23T01:37:22;94122.75;;;7.55
61595;BMP280;47397;48.194;11.632;2024-02-23T01:38:22;94129.44;;;7.56
61595;BMP280;47397;48.194;11.632;2024-02-23T01:39:25;94131.22;;;7.53
61595;BMP280;47397;48.194;11.632;2024-02-23T01:40:25;94142.47;;;7.46
61595;BMP280;47397;48.194;11.632;2024-02-23T01:41:26;94133.75;;;7.53
61595;BMP280;47397;48.194;11.632;2024-02-23T01:42:26;94136.16;;;7.57
61595;BMP280;47397;48.194;11.632;2024-02-23T01:43:27;94126.16;;;7.53
61595;BMP280;47397;48.194;11.632;2024-02-23T01:44:27;94133.81;;;7.52
61595;BMP280;47397;48.194;11.632;2024-02-23T01:45:27;94133.00;;;7.51
61595;BMP280;47397;48.194;11.632;2024-02-23T01:46:28;94127.19;;;7.49
61595;BMP280;47397;48.194;11.632;2024-02-23T01:47:30;94131.59;;;7.44
61595;BMP280;47397;48.194;11.632;2024-02-23T01:48:31;94127.31;;;7.46
61595;BMP280;47397;48.194;11.632;2024-02-23T01:49:32;94129.22;;;7.40
61595;BMP280;47397;48.194;11.632;2024-02-23T01:50:33;94133.34;;;7.42
61595;BMP280;47397;48.194;11.632;2024-02-23T01:51:33;94133.25;;;7.45
61595;BMP280;47397;48.194;11.632;2024-02-23T01:52:34;94129.09;;;7.43
61595;BMP280;47397;48.194;11.632;2024-02-23T01:53:34;94132.56;;;7.40
61595;BMP280;47397;48.194;11.632;2024-02-23T01:54:35;94126.13;;;7.33
61595;BMP280;47397;48.194;11.632;2024-02-23T01:55:36;94139.63;;;7.32
61595;BMP280;47397;48.194;11.632;2024-02-23T01:56:37;94125.25;;;7.34
61595;BMP280;47397;48.194;11.632;2024-02-23T01:57:38;94125.44;;;7.30
61595;BMP280;47397;48.194;11.632;2024-02-23T01:58:39;94131.19;;;7.33
61595;BMP280;47397;48.194;11.632;2024-02-23T01:59:40;94126.13;;;7.33
61595;BMP280;47397;48.194;11.632;2024-02-23T02:00:41;94139.69;;;7.31
61595;BMP280;47397;48.194;11.632;2024-02-23T02:01:42;94136.94;;;7.37
61595;BMP280;47397;48.194;11.632;2024-02-23T02:02:44;94137.13;;;7.32
61595;BMP280;47397;48.194;11.632;2024-02-23T02:03:45;94134.72;;;7.29
61595;BMP280;47397;48.194;11.632;2024-02-23T02:04:45;94138.88;;;7.30
61595;BMP280;47397;48.194;11.632;2024-02-23T02:05:46;94134.66;;;7.31
61595;BMP280;47397;48.194;11.632;2024-02-23T02:06:46;94133.94;;;7.27
61595;BMP280;47397;48.194;11.632;2024-02-23T02:07:49;94133.94;;;7.27
61595;BMP280;47397;48.194;11.632;2024-02-23T02:08:50;94139.75;;;7.29
61595;BMP280;47397;48.194;11.632;2024-02-23T02:09:50;94147.41;;;7.28
61595;BMP280;47397;48.194;11.632;2024-02-23T02:10:51;94136.72;;;7.21
61595;BMP280;47397;48.194;11.632;2024-02-23T02:11:51;94143.59;;;7.17
61595;BMP280;47397;48.194;11.632;2024-02-23T02:12:51;94135.00;;;7.21
61595;BMP280;47397;48.194;11.632;2024-02-23T02:13:52;94133.72;;;7.11
61595;BMP280;47397;48.194;11.632;2024-02-23T02:14:52;94132.44;;;7.23
61595;BMP280;47397;48.194;11.632;2024-02-23T02:15:52;94145.00;;;7.25
61595;BMP280;47397;48.194;11.632;2024-02-23T02:16:53;94142.78;;;7.17
61595;BMP280;47397;48.194;11.632;2024-02-23T02:17:54;94138.59;;;7.16
61595;BMP280;47397;48.194;11.632;2024-02-23T02:18:55;94145.31;;;7.17
61595;BMP280;47397;48.194;11.632;2024-02-23T02:19:56;94147.13;;;7.13
61595;BMP280;47397;48.194;11.632;2024-02-23T02:20:58;94145.38;;;7.15
61595;BMP280;47397;48.194;11.632;2024-02-23T02:21:59;94145.59;;;7.09
61595;BMP280;47397;48.194;11.632;2024-02-23T02:22:59;94153.25;;;7.08
61595;BMP280;47397;48.194;11.632;2024-02-23T02:23:59;94149.06;;;7.07
61595;BMP280;47397;48.194;11.632;2024-02-23T02:25:00;94149.22;;;7.02
61595;BMP280;47397;48.194;11.632;2024-02-23T02:26:00;94155.81;;;7.06
61595;BMP280;47397;48.194;11.632;2024-02-23T02:27:00;94154.00;;;7.10
61595;BMP280;47397;48.194;11.632;2024-02-23T02:28:01;94149.66;;;7.13
61595;BMP280;47397;48.194;11.632;2024-02-23T02:29:01;94153.13;;;7.11
61595;BMP280;47397;48.194;11.632;2024-02-23T02:30:02;94156.41;;;7.13
61595;BMP280;47397;48.194;11.632;2024-02-23T02:31:02;94155.75;;;7.08
61595;BMP280;47397;48.194;11.632;2024-02-23T02:32:03;94154.13;;;7.07
61595;BMP280;47397;48.194;11.632;2024-02-23T02:33:05;94155.91;;;7.03
61595;BMP280;47397;48.194;11.632;2024-02-23T02:34:05;94159.31;;;7.02
61595;BMP280;47397;48.194;11.632;2024-02-23T02:35:06;94165.81;;;7.09
61595;BMP280;47397;48.194;11.632;2024-02-23T02:36:07;94164.88;;;7.12
61595;BMP280;47397;48.194;11.632;2024-02-23T02:37:07;94172.72;;;7.04
61595;BMP280;47397;48.194;11.632;2024-02-23T02:38:07;94174.22;;;7.10
61595;BMP280;47397;48.194;11.632;2024-02-23T02:39:08;94174.31;;;7.07
61595;BMP280;47397;48.194;11.632;2024-02-23T02:40:09;94172.63;;;7.07
61595;BMP280;47397;48.194;11.632;2024-02-23T02:41:09;94168.84;;;6.96
61595;BMP280;47397;48.194;11.632;2024-02-23T02:42:09;94173.66;;;7.02
61595;BMP280;47397;48.194;11.632;2024-02-23T02:43:10;94172.00;;;7.01
61595;BMP280;47397;48.194;11.632;2024-02-23T02:44:10;94185.41;;;7.03
61595;BMP280;47397;48.194;11.632;2024-02-23T02:45:10;94175.28;;;7.03
61595;BMP280;47397;48.194;11.632;2024-02-23T02:46:11;94179.63;;;6.99
61595;BMP280;47397;48.194;11.632;2024-02-23T02:47:11;94176.94;;;7.04
61595;BMP280;47397;48.194;11.632;2024-02-23T02:48:13;94186.38;;;6.99
61595;BMP280;47397;48.194;11.632;2024-02-23T02:49:13;94178.00;;;6.98
61595;BMP280;47397;48.194;11.632;2024-02-23T02:50:13;94175.59;;;6.95
61595;BMP280;47397;48.194;11.632;2024-02-23T02:51:14;94182.41;;;6.93
61595;BMP280;47397;48.194;11.632;2024-02-23T02:52:14;94179.69;;;6.98
61595;BMP280;47397;48.194;11.632;2024-02-23T02:53:15;94183.16;;;6.95
61595;BMP280;47397;48.194;11.632;2024-02-23T02:54:15;94186.38;;;6.99
61595;BMP280;47397;48.194;11.632;2024-02-23T02:55:15;94185.97;;;6.87
61595;BMP280;47397;48.194;11.632;2024-02-23T02:56:16;94186.91;;;6.85
61595;BMP280;47397;48.194;11.632;2024-02-23T02:57:16;94183.03;;;6.76
61595;BMP280;47397;48.194;11.632;2024-02-23T02:58:16;94184.69;;;6.77
61595;BMP280;47397;48.194;11.632;2024-02-23T02:59:17;94189.50;;;6.83
61595;BMP280;47397;48.194;11.632;2024-02-23T03:00:17;94185.56;;;6.76
61595;BMP280;47397;48.194;11.632;2024-02-23T03:01:18;94179.78;;;6.73
61595;BMP280;47397;48.194;11.632;2024-02-23T03:02:18;94179.84;;;6.71
61595;BMP280;47397;48.194;11.632;2024-02-23T03:03:20;94170.47;;;6.75
61595;BMP280;47397;48.194;11.632;2024-02-23T03:04:21;94183.25;;;6.70
61595;BMP280;47397;48.194;11.632;2024-02-23T03:05:21;94176.44;;;6.72
61595;BMP280;47397;48.194;11.632;2024-02-23T03:06:21;94176.56;;;6.69
61595;BMP280;47397;48.194;11.632;2024-02-23T03:07:21;94179.03;;;6.71
61595;BMP280;47397;48.194;11.632;2024-02-23T03:08:22;94182.38;;;6.71
61595;BMP280;47397;48.194;11.632;2024-02-23T03:09:22;94180.50;;;6.76
61595;BMP280;47397;48.194;11.632;2024-02-23T03:10:22;94186.69;;;6.68
61595;BMP280;47397;48.194;11.632;2024-02-23T03:11:23;94181.16;;;6.58
61595;BMP280;47397;48.194;11.632;2024-02-23T03:12:23;94167.47;;;6.64
61595;BMP280;47397;48.194;11.632;2024-02-23T03:13:24;94175.81;;;6.66
61595;BMP280;47397;48.194;11.632;2024-02-23T03:14:25;94172.66;;;6.61
61595;BMP280;47397;48.194;11.632;2024-02-23T03:15:25;94175.22;;;6.59
61595;BMP280;47397;48.194;11.632;2024-02-23T03:16:26;94173.56;;;6.58
61595;BMP280;47397;48.194;11.632;2024-02-23T03:17:26;94171.81;;;6.60
61595;BMP280;47397;48.194;11.632;2024-02-23T03:18:28;94175.78;;;6.44
61595;BMP280;47397;48.194;11.632;2024-02-23T03:19:28;94180.56;;;6.51
61595;BMP280;47397;48.194;11.632;2024-02-23T03:20:28;94184.44;;;6.60
61595;BMP280;47397;48.194;11.632;2024-02-23T03:21:29;94176.00;;;6.61
61595;BMP280;47397;48.194;11.632;2024-02-23T03:22:29;94171.00;;;6.59
61595;BMP280;47397;48.194;11.632;2024-02-23T03:23:29;94179.66;;;6.52
61595;BMP280;47397;48.194;11.632;2024-02-23T03:24:30;94181.31;;;6.53
61595;BMP280;47397;48.194;11.632;2024-02-23T03:25:30;94178.13;;;6.48
61595;BMP280;47397;48.194;11.632;2024-02-23T03:26:31;94170.28;;;6.56
61595;BMP280;47397;48.194;11.632;2024-02-23T03:27:31;94170.28;;;6.56
61595;BMP280;47397;48.194;11.632;2024-02-23T03:28:31;94179.34;;;6.62
61595;BMP280;47397;48.194;11.632;2024-02-23T03:29:32;94182.84;;;6.57
61595;BMP280;47397;48.194;11.632;2024-02-23T03:30:32;94180.16;;;6.62
61595;BMP280;47397;48.194;11.632;2024-02-23T03:31:32;94176.59;;;6.68
61595;BMP280;47397;48.194;11.632;2024-02-23T03:32:33;94181.63;;;6.68
61595;BMP280;47397;48.194;11.632;2024-02-23T03:33:35;94179.50;;;6.57
61595;BMP280;47397;48.194;11.632;2024-02-23T03:34:35;94172.75;;;6.57
61595;BMP280;47397;48.194;11.632;2024-02-23T03:35:35;94177.69;;;6.61
61595;BMP280;47397;48.194;11.632;2024-02-23T03:36:36;94176.75;;;6.63
61595;BMP280;47397;48.194;11.632;2024-02-23T03:37:36;94181.84;;;6.62
61595;BMP280;47397;48.194;11.632;2024-02-23T03:38:37;94175.00;;;6.65
61595;BMP280;47397;48.194;11.632;2024-02-23T03:39:37;94182.78;;;6.59
61595;BMP280;47397;48.194;11.632;2024-02-23T03:40:37;94178.63;;;6.58
61595;BMP280;47397;48.194;11.632;2024-02-23T03:41:38;94180.44;;;6.54
61595;BMP280;47397;48.194;11.632;2024-02-23T03:42:38;94180.50;;;6.53
61595;BMP280;47397;48.194;11.632;2024-02-23T03:43:38;94176.22;;;6.55
61595;BMP280;47397;48.194;11.632;2024-02-23T03:44:39;94184.66;;;6.54
61595;BMP280;47397;48.194;11.632;2024-02-23T03:45:39;94187.06;;;6.57
61595;BMP280;47397;48.194;11.632;2024-02-23T03:46:39;94188.94;;;6.52
61595;BMP280;47397;48.194;11.632;2024-02-23T03:47:40;94194.81;;;6.52
61595;BMP280;47397;48.194;11.632;2024-02-23T03:48:41;94185.44;;;6.56
61595;BMP280;47397;48.194;11.632;2024-02-23T03:49:42;94192.22;;;6.54
61595;BMP280;47397;48.194;11.632;2024-02-23T03:50:42;94194.22;;;6.46
61595;BMP280;47397;48.194;11.632;2024-02-23T03:51:42;94188.41;;;6.44
61595;BMP280;47397;48.194;11.632;2024-02-23T03:52:43;94191.53;;;6.50
61595;BMP280;47397;48.194;11.632;2024-02-23T03:53:43;94194.22;;;6.46
61595;BMP280;47397;48.194;11.632;2024-02-23T03:54:43;94200.66;;;6.30
61595;BMP280;47397;48.194;11.632;2024-02-23T03:55:44;94194.88;;;6.26
61595;BMP280;47397;48.194;11.632;2024-02-23T03:56:44;94195.66;;;6.28
61595;BMP280;47397;48.194;11.632;2024-02-23T03:57:44;94192.19;;;6.31
61595;BMP280;47397;48.194;11.632;2024-02-23T03:58:45;94197.34;;;6.27
61595;BMP280;47397;48.194;11.632;2024-02-23T03:59:51;94201.56;;;6.27
61595;BMP280;47397;48.194;11.632;2024-02-23T04:00:51;94194.53;;;6.12
61595;BMP280;47397;48.194;11.632;2024-02-23T04:01:52;94197.00;;;6.13
61595;BMP280;47397;48.194;11.632;2024-02-23T04:02:52;94195.16;;;6.18
61595;BMP280;47397;48.194;11.632;2024-02-23T04:03:54;94204.09;;;6.27
61595;BMP280;47397;48.194;11.632;2024-02-23T04:04:54;94198.13;;;6.30
61595;BMP280;47397;48.194;11.632;2024-02-23T04:05:54;94204.41;;;6.18
61595;BMP280;47397;48.194;11.632;2024-02-23T04:06:55;94204.56;;;6.13
61595;BMP280;47397;48.194;11.632;2024-02-23T04:07:55;94202.78;;;6.17
61595;BMP280;47397;48.194;11.632;2024-02-23T04:08:56;94202.34;;;6.29
61595;BMP280;47397;48.194;11.632;2024-02-23T04:09:56;94205.44;;;6.37
61595;BMP280;47397;48.194;11.632;2024-02-23T04:10:56;94210.72;;;6.30
61595;BMP280;47397;48.194;11.632;2024-02-23T04:11:57;94211.47;;;6.33
61595;BMP280;47397;48.194;11.632;2024-02-23T04:12:57;94210.06;;;6.24
61595;BMP280;47397;48.194;11.632;2024-02-23T04:13:58;94208.13;;;6.33
61595;BMP280;47397;48.194;11.632;2024-02-23T04:14:58;94214.91;;;6.31
61595;BMP280;47397;48.194;11.632;2024-02-23T04:16:00;94213.38;;;6.26
61595;BMP280;47397;48.194;11.632;2024-02-23T04:17:00;94215.22;;;6.21
61595;BMP280;47397;48.194;11.632;2024-02-23T04:18:01;94211.00;;;6.22
61595;BMP280;47397;48.194;11.632;2024-02-23T04:19:02;94209.63;;;6.13
61595;BMP280;47397;48.194;11.632;2024-02-23T04:20:06;94210.19;;;6.21
61595;BMP280;47397;48.194;11.632;2024-02-23T04:21:07;94210.28;;;6.18
61595;BMP280;47397;48.194;11.632;2024-02-23T04:22:08;94213.00;;;6.12
61595;BMP280;47397;48.194;11.632;2024-02-23T04:23:08;94215.34;;;6.18
61595;BMP280;47397;48.194;11.632;2024-02-23T04:24:09;94212.19;;;6.12
61595;BMP280;47397;48.194;11.632;2024-02-23T04:25:09;94213.59;;;5.95
61595;BMP280;47397;48.194;11.632;2024-02-23T04:26:09;94207.53;;;6.01
61595;BMP280;47397;48.194;11.632;2024-02-23T04:27:10;94213.59;;;5.95
61595;BMP280;47397;48.194;11.632;2024-02-23T04:28:10;94208.22;;;6.05
61595;BMP280;47397;48.194;11.632;2024-02-23T04:29:10;94218.63;;;5.95
61595;BMP280;47397;48.194;11.632;2024-02-23T04:30:12;94214.47;;;5.93
61595;BMP280;47397;48.194;11.632;2024-02-23T04:31:12;94215.06;;;5.75
61595;BMP280;47397;48.194;11.632;2024-02-23T04:32:13;94215.88;;;5.75
61595;BMP280;47397;48.194;11.632;2024-02-23T04:33:13;94212.34;;;5.81
61595;BMP280;47397;48.194;11.632;2024-02-23T04:34:15;94215.41;;;5.90
61595;BMP280;47397;48.194;11.632;2024-02-23T04:35:16;94222.28;;;5.85
61595;BMP280;47397;48.194;11.632;2024-02-23T04:36:18;94223.56;;;5.99
61595;BMP280;47397;48.194;11.632;2024-02-23T04:37:19;94224.19;;;6.05
61595;BMP280;47397;48.194;11.632;2024-02-23T04:38:19;94229.19;;;6.07
61595;BMP280;47397;48.194;11.632;2024-02-23T04:39:20;94215.25;;;5.97
61595;BMP280;47397;48.194;11.632;2024-02-23T04:40:20;94221.94;;;5.98
61595;BMP280;47397;48.194;11.632;2024-02-23T04:41:21;94223.38;;;6.05
61595;BMP280;47397;48.194;11.632;2024-02-23T04:42:21;94219.16;;;6.05
61595;BMP280;47397;48.194;11.632;2024-02-23T04:43:22;94216.47;;;6.10
61595;BMP280;47397;48.194;11.632;2024-02-23T04:44:22;94224.28;;;6.02
61595;BMP280;47397;48.194;11.632;2024-02-23T04:45:22;94220.53;;;5.87
61595;BMP280;47397;48.194;11.632;2024-02-23T04:46:23;94212.91;;;5.89
61595;BMP280;47397;48.194;11.632;2024-02-23T04:47:23;94217.81;;;5.95
61595;BMP280;47397;48.194;11.632;2024-02-23T04:48:23;94219.47;;;5.96
61595;BMP280;47397;48.194;11.632;2024-02-23T04:49:25;94211.31;;;5.86
61595;BMP280;47397;48.194;11.632;2024-02-23T04:50:25;94213.00;;;5.86
61595;BMP280;47397;48.194;11.632;2024-02-23T04:51:26;94209.72;;;5.84
61595;BMP280;47397;48.194;11.632;2024-02-23T04:52:26;94220.88;;;5.77
61595;BMP280;47397;48.194;11.632;2024-02-23T04:53:26;94231.84;;;5.76
61595;BMP280;47397;48.194;11.632;2024-02-23T04:54:27;94219.19;;;5.77
61595;BMP280;47397;48.194;11.632;2024-02-23T04:55:27;94222.56;;;5.76
61595;BMP280;47397;48.194;11.632;2024-02-23T04:56:27;94213.13;;;5.83
61595;BMP280;47397;48.194;11.632;2024-02-23T04:57:28;94225.00;;;5.79
61595;BMP280;47397;48.194;11.632;2024-02-23T04:58:28;94219.63;;;5.63
61595;BMP280;47397;48.194;11.632;2024-02-23T04:59:28;94215.22;;;5.70
61595;BMP280;47397;48.194;11.632;2024-02-23T05:00:28;94218.34;;;5.77
61595;BMP280;47397;48.194;11.632;2024-02-23T05:01:29;94213.31;;;5.77
61595;BMP280;47397;48.194;11.632;2024-02-23T05:02:29;94204.41;;;5.67
61595;BMP280;47397;48.194;11.632;2024-02-23T05:03:30;94200.03;;;5.72
61595;BMP280;47397;48.194;11.632;2024-02-23T05:04:31;94195.88;;;5.71
61595;BMP280;47397;48.194;11.632;2024-02-23T05:05:32;94205.91;;;5.72
61595;BMP280;47397;48.194;11.632;2024-02-23T05:06:32;94194.75;;;5.79
61595;BMP280;47397;48.194;11.632;2024-02-23T05:07:32;94193.16;;;5.77
61595;BMP280;47397;48.194;11.632;2024-02-23T05:08:33;94194.69;;;5.81
61595;BMP280;47397;48.194;11.632;2024-02-23T05:09:33;94194.84;;;5.76
61595;BMP280;47397;48.194;11.632;2024-02-23T05:10:34;94198.28;;;5.74
61595;BMP280;47397;48.194;11.632;2024-02-23T05:11:34;94193.16;;;5.77
61595;BMP280;47397;48.194;11.632;2024-02-23T05:12:34;94195.97;;;5.68
61595;BMP280;47397;48.194;11.632;2024-02-23T05:13:35;94189.13;;;5.71
61595;BMP280;47397;48.194;11.632;2024-02-23T05:14:35;94193.97;;;5.77
61595;BMP280;47397;48.194;11.632;2024-02-23T05:15:35;94190.22;;;5.89
61595;BMP280;47397;48.194;11.632;2024-02-23T05:16:36;94185.53;;;5.78
61595;BMP280;47397;48.194;11.632;2024-02-23T05:17:36;94192.47;;;5.72
61595;BMP280;47397;48.194;11.632;2024-02-23T05:18:36;94185.75;;;5.72
61595;BMP280;47397;48.194;11.632;2024-02-23T05:19:38;94185.94;;;5.66
61595;BMP280;47397;48.194;11.632;2024-02-23T05:20:39;94189.97;;;5.72
61595;BMP280;47397;48.194;11.632;2024-02-23T05:21:39;94197.31;;;5.78
61595;BMP280;47397;48.194;11.632;2024-02-23T05:22:39;94201.59;;;5.76
61595;BMP280;47397;48.194;11.632;2024-02-23T05:23:40;94210.75;;;5.78
61595;BMP280;47397;48.194;11.632;2024-02-23T05:24:40;94211.56;;;5.79
61595;BMP280;47397;48.194;11.632;2024-02-23T05:25:41;94210.75;;;5.78
61595;BMP280;47397;48.194;11.632;2024-02-23T05:26:41;94204.72;;;5.82
61595;BMP280;47397;48.194;11.632;2024-02-23T05:27:41;94217.28;;;5.84
61595;BMP280;47397;48.194;11.632;2024-02-23T05:28:41;94217.22;;;5.85
61595;BMP280;47397;48.194;11.632;2024-02-23T05:29:42;94216.97;;;5.94
61595;BMP280;47397;48.194;11.632;2024-02-23T05:30:42;94212.13;;;5.87
61595;BMP280;47397;48.194;11.632;2024-02-23T05:31:44;94216.56;;;5.80
61595;BMP280;47397;48.194;11.632;2024-02-23T05:32:45;94214.53;;;5.91
61595;BMP280;47397;48.194;11.632;2024-02-23T05:33:45;94220.53;;;5.87
61595;BMP280;47397;48.194;11.632;2024-02-23T05:34:47;94225.78;;;5.81
61595;BMP280;47397;48.194;11.632;2024-02-23T05:35:47;94217.28;;;5.84
61595;BMP280;47397;48.194;11.632;2024-02-23T05:36:48;94220.81;;;5.78
61595;BMP280;47397;48.194;11.632;2024-02-23T05:37:48;94227.47;;;5.81
61595;BMP280;47397;48.194;11.632;2024-02-23T05:38:48;94223.97;;;5.85
61595;BMP280;47397;48.194;11.632;2024-02-23T05:39:49;94235.22;;;5.75
61595;BMP280;47397;48.194;11.632;2024-02-23T05:40:49;94226.63;;;5.80
61595;BMP280;47397;48.194;11.632;2024-02-23T05:41:49;94223.00;;;5.89
61595;BMP280;47397;48.194;11.632;2024-02-23T05:42:49;94222.97;;;5.90
61595;BMP280;47397;48.194;11.632;2024-02-23T05:43:50;94224.63;;;5.91
61595;BMP280;47397;48.194;11.632;2024-02-23T05:44:50;94231.53;;;5.85
61595;BMP280;47397;48.194;11.632;2024-02-23T05:45:51;94231.47;;;5.86
61595;BMP280;47397;48.194;11.632;2024-02-23T05:46:51;94228.78;;;5.66
61595;BMP280;47397;48.194;11.632;2024-02-23T05:47:51;94223.50;;;5.74
61595;BMP280;47397;48.194;11.632;2024-02-23T05:48:52;94227.56;;;5.78